sensor_id;sensor_type;location;lat;lon;timestamp;P1;durP1;ratioP1;P2;durP2;ratioP2
15155;SDS011;7678;50.058;8.306;2022-09-09T00:00:20;5.10;;;2.10;;
15155;SDS011;7678;50.058;8.306;2022-09-09T00:02:50;7.17;;;2.40;;
15155;SDS011;7678;50.058;8.306;2022-09-09T00:05:27;3.00;;;2.37;;
15155;SDS011;7678;50.058;8.306;2022-09-09T00:08:02;6.57;;;2.60;;
15155;SDS011;7678;50.058;8.306;2022-09-09T00:10:32;5.33;;;2.40;;
15155;SDS011;7678;50.058;8.306;2022-09-09T00:13:06;4.33;;;2.33;;
15155;SDS011;7678;50.058;8.306;2022-09-09T00:15:46;3.13;;;2.23;;
15155;SDS011;7678;50.058;8.306;2022-09-09T00:18:24;3.23;;;2.60;;
15155;SDS011;7678;50.058;8.306;2022-09-09T00:20:56;5.17;;;2.83;;
15155;SDS011;7678;50.058;8.306;2022-09-09T00:23:30;6.50;;;3.00;;
15155;SDS011;7678;50.058;8.306;2022-09-09T00:26:04;7.07;;;2.97;;
15155;SDS011;7678;50.058;8.306;2022-09-09T00:28:38;5.30;;;2.70;;
15155;SDS011;7678;50.058;8.306;2022-09-09T00:31:23;5.63;;;2.63;;
15155;SDS011;7678;50.058;8.306;2022-09-09T00:33:55;5.90;;;2.70;;
15155;SDS011;7678;50.058;8.306;2022-09-09T00:36:30;4.93;;;3.00;;
15155;SDS011;7678;50.058;8.306;2022-09-09T00:39:01;6.90;;;2.83;;
15155;SDS011;7678;50.058;8.306;2022-09-09T00:41:32;8.07;;;3.40;;
15155;SDS011;7678;50.058;8.306;2022-09-09T00:44:14;8.63;;;3.07;;
15155;SDS011;7678;50.058;8.306;2022-09-09T00:46:59;5.97;;;2.43;;
15155;SDS011;7678;50.058;8.306;2022-09-09T00:49:37;3.97;;;2.60;;
15155;SDS011;7678;50.058;8.306;2022-09-09T00:52:16;5.13;;;2.73;;
15155;SDS011;7678;50.058;8.306;2022-09-09T00:54:56;7.27;;;2.67;;
15155;SDS011;7678;50.058;8.306;2022-09-09T00:57:32;5.97;;;3.00;;
15155;SDS011;7678;50.058;8.306;2022-09-09T01:00:16;7.20;;;2.90;;
15155;SDS011;7678;50.058;8.306;2022-09-09T01:02:50;5.70;;;2.87;;
15155;SDS011;7678;50.058;8.306;2022-09-09T01:05:25;4.37;;;2.33;;
15155;SDS011;7678;50.058;8.306;2022-09-09T01:07:57;5.83;;;2.90;;
15155;SDS011;7678;50.058;8.306;2022-09-09T01:10:29;7.33;;;2.97;;
15155;SDS011;7678;50.058;8.306;2022-09-09T01:13:14;9.53;;;3.40;;
15155;SDS011;7678;50.058;8.306;2022-09-09T01:15:46;5.27;;;2.70;;
15155;SDS011;7678;50.058;8.306;2022-09-09T01:18:17;5.90;;;2.70;;
15155;SDS011;7678;50.058;8.306;2022-09-09T01:20:49;5.43;;;2.90;;
15155;SDS011;7678;50.058;8.306;2022-09-09T01:23:30;7.70;;;3.03;;
15155;SDS011;7678;50.058;8.306;2022-09-09T01:26:14;6.27;;;2.70;;
15155;SDS011;7678;50.058;8.306;2022-09-09T01:28:53;5.77;;;2.50;;
15155;SDS011;7678;50.058;8.306;2022-09-09T01:31:23;3.63;;;2.10;;
15155;SDS011;7678;50.058;8.306;2022-09-09T01:33:55;5.30;;;2.60;;
15155;SDS011;7678;50.058;8.306;2022-09-09T01:36:25;5.17;;;2.60;;
15155;SDS011;7678;50.058;8.306;2022-09-09T01:38:57;6.47;;;3.00;;
15155;SDS011;7678;50.058;8.306;2022-09-09T01:41:26;5.53;;;2.40;;
15155;SDS011;7678;50.058;8.306;2022-09-09T01:43:54;4.33;;;2.30;;
15155;SDS011;7678;50.058;8.306;2022-09-09T01:46:23;7.23;;;2.77;;
15155;SDS011;7678;50.058;8.306;2022-09-09T01:48:52;4.23;;;2.53;;
15155;SDS011;7678;50.058;8.306;2022-09-09T01:51:21;4.17;;;2.83;;
15155;SDS011;7678;50.058;8.306;2022-09-09T01:53:49;5.90;;;2.70;;
15155;SDS011;7678;50.058;8.306;2022-09-09T01:56:23;8.50;;;2.80;;
15155;SDS011;7678;50.058;8.306;2022-09-09T01:59:07;5.77;;;2.53;;
15155;SDS011;7678;50.058;8.306;2022-09-09T02:01:50;6.13;;;2.83;;
15155;SDS011;7678;50.058;8.306;2022-09-09T02:04:32;4.87;;;3.00;;
15155;SDS011;7678;50.058;8.306;2022-09-09T02:07:06;7.73;;;2.97;;
15155;SDS011;7678;50.058;8.306;2022-09-09T02:09:56;5.97;;;2.80;;
15155;SDS011;7678;50.058;8.306;2022-09-09T02:12:29;4.73;;;2.87;;
15155;SDS011;7678;50.058;8.306;2022-09-09T02:15:00;8.13;;;3.57;;
15155;SDS011;7678;50.058;8.306;2022-09-09T02:17:33;6.73;;;2.90;;
15155;SDS011;7678;50.058;8.306;2022-09-09T02:20:06;6.53;;;3.30;;
15155;SDS011;7678;50.058;8.306;2022-09-09T02:22:37;4.60;;;2.90;;
15155;SDS011;7678;50.058;8.306;2022-09-09T02:25:08;4.27;;;2.50;;
15155;SDS011;7678;50.058;8.306;2022-09-09T02:27:40;7.60;;;2.97;;
15155;SDS011;7678;50.058;8.306;2022-09-09T02:30:12;5.37;;;3.00;;
15155;SDS011;7678;50.058;8.306;2022-09-09T02:32:41;4.80;;;2.60;;
15155;SDS011;7678;50.058;8.306;2022-09-09T02:35:11;5.77;;;3.10;;
15155;SDS011;7678;50.058;8.306;2022-09-09T02:37:41;7.90;;;2.90;;
15155;SDS011;7678;50.058;8.306;2022-09-09T02:40:12;4.97;;;2.90;;
15155;SDS011;7678;50.058;8.306;2022-09-09T02:42:44;3.63;;;2.50;;
15155;SDS011;7678;50.058;8.306;2022-09-09T02:45:15;7.83;;;2.87;;
15155;SDS011;7678;50.058;8.306;2022-09-09T02:47:47;4.70;;;2.57;;
15155;SDS011;7678;50.058;8.306;2022-09-09T02:50:19;6.43;;;2.60;;
15155;SDS011;7678;50.058;8.306;2022-09-09T02:52:55;4.43;;;2.30;;
15155;SDS011;7678;50.058;8.306;2022-09-09T02:55:36;5.20;;;2.30;;
15155;SDS011;7678;50.058;8.306;2022-09-09T02:58:08;6.10;;;2.40;;
15155;SDS011;7678;50.058;8.306;2022-09-09T03:00:38;6.50;;;2.70;;
15155;SDS011;7678;50.058;8.306;2022-09-09T03:03:07;5.67;;;2.40;;
15155;SDS011;7678;50.058;8.306;2022-09-09T03:05:35;4.50;;;2.23;;
15155;SDS011;7678;50.058;8.306;2022-09-09T03:08:04;7.03;;;2.53;;
15155;SDS011;7678;50.058;8.306;2022-09-09T03:10:33;5.83;;;2.70;;
15155;SDS011;7678;50.058;8.306;2022-09-09T03:13:01;4.90;;;2.30;;
15155;SDS011;7678;50.058;8.306;2022-09-09T03:15:32;6.30;;;2.50;;
15155;SDS011;7678;50.058;8.306;2022-09-09T03:18:00;5.90;;;2.27;;
15155;SDS011;7678;50.058;8.306;2022-09-09T03:20:28;4.17;;;2.43;;
15155;SDS011;7678;50.058;8.306;2022-09-09T03:22:57;4.80;;;2.10;;
15155;SDS011;7678;50.058;8.306;2022-09-09T03:25:26;7.17;;;2.47;;
15155;SDS011;7678;50.058;8.306;2022-09-09T03:27:55;7.47;;;2.53;;
15155;SDS011;7678;50.058;8.306;2022-09-09T03:30:23;9.30;;;2.30;;
15155;SDS011;7678;50.058;8.306;2022-09-09T03:32:54;6.73;;;2.50;;
15155;SDS011;7678;50.058;8.306;2022-09-09T03:35:22;8.50;;;2.93;;
15155;SDS011;7678;50.058;8.306;2022-09-09T03:37:51;4.40;;;2.40;;
15155;SDS011;7678;50.058;8.306;2022-09-09T03:40:21;4.20;;;2.20;;
15155;SDS011;7678;50.058;8.306;2022-09-09T03:42:49;6.87;;;2.13;;
15155;SDS011;7678;50.058;8.306;2022-09-09T03:45:17;6.23;;;2.77;;
15155;SDS011;7678;50.058;8.306;2022-09-09T03:47:45;4.10;;;2.43;;
15155;SDS011;7678;50.058;8.306;2022-09-09T03:50:14;4.03;;;2.10;;
15155;SDS011;7678;50.058;8.306;2022-09-09T03:52:42;5.47;;;2.30;;
15155;SDS011;7678;50.058;8.306;2022-09-09T03:55:10;5.40;;;2.30;;
15155;SDS011;7678;50.058;8.306;2022-09-09T03:57:38;8.30;;;2.40;;
15155;SDS011;7678;50.058;8.306;2022-09-09T04:00:07;8.60;;;2.63;;
15155;SDS011;7678;50.058;8.306;2022-09-09T04:02:35;3.73;;;2.13;;
15155;SDS011;7678;50.058;8.306;2022-09-09T04:05:04;7.43;;;2.33;;
15155;SDS011;7678;50.058;8.306;2022-09-09T04:07:34;5.13;;;2.20;;
15155;SDS011;7678;50.058;8.306;2022-09-09T04:10:02;6.00;;;2.30;;
15155;SDS011;7678;50.058;8.306;2022-09-09T04:12:30;6.60;;;2.10;;
15155;SDS011;7678;50.058;8.306;2022-09-09T04:14:58;6.10;;;2.40;;
15155;SDS011;7678;50.058;8.306;2022-09-09T04:17:28;5.63;;;1.97;;
15155;SDS011;7678;50.058;8.306;2022-09-09T04:19:56;10.43;;;2.57;;
15155;SDS011;7678;50.058;8.306;2022-09-09T04:22:24;6.63;;;2.33;;
15155;SDS011;7678;50.058;8.306;2022-09-09T04:24:53;3.37;;;2.30;;
15155;SDS011;7678;50.058;8.306;2022-09-09T04:27:21;4.70;;;2.13;;
15155;SDS011;7678;50.058;8.306;2022-09-09T04:29:49;5.57;;;1.90;;
15155;SDS011;7678;50.058;8.306;2022-09-09T04:32:16;4.03;;;2.20;;
15155;SDS011;7678;50.058;8.306;2022-09-09T04:34:44;5.47;;;2.30;;
15155;SDS011;7678;50.058;8.306;2022-09-09T04:37:14;6.20;;;2.40;;
15155;SDS011;7678;50.058;8.306;2022-09-09T04:39:42;4.90;;;1.97;;
15155;SDS011;7678;50.058;8.306;2022-09-09T04:42:12;4.77;;;2.00;;
15155;SDS011;7678;50.058;8.306;2022-09-09T04:44:40;7.97;;;2.20;;
15155;SDS011;7678;50.058;8.306;2022-09-09T04:47:08;6.93;;;2.30;;
15155;SDS011;7678;50.058;8.306;2022-09-09T04:49:36;4.90;;;2.53;;
15155;SDS011;7678;50.058;8.306;2022-09-09T04:52:04;5.33;;;2.83;;
15155;SDS011;7678;50.058;8.306;2022-09-09T04:54:32;5.33;;;2.50;;
15155;SDS011;7678;50.058;8.306;2022-09-09T04:57:00;5.17;;;2.30;;
15155;SDS011;7678;50.058;8.306;2022-09-09T04:59:29;5.63;;;2.30;;
15155;SDS011;7678;50.058;8.306;2022-09-09T05:01:57;4.90;;;2.40;;
15155;SDS011;7678;50.058;8.306;2022-09-09T05:04:27;4.33;;;2.60;;
15155;SDS011;7678;50.058;8.306;2022-09-09T05:06:55;7.40;;;2.40;;
15155;SDS011;7678;50.058;8.306;2022-09-09T05:09:23;3.90;;;2.13;;
15155;SDS011;7678;50.058;8.306;2022-09-09T05:11:51;5.13;;;2.37;;
15155;SDS011;7678;50.058;8.306;2022-09-09T05:14:19;4.13;;;2.13;;
15155;SDS011;7678;50.058;8.306;2022-09-09T05:16:48;3.60;;;2.20;;
15155;SDS011;7678;50.058;8.306;2022-09-09T05:19:17;6.10;;;2.20;;
15155;SDS011;7678;50.058;8.306;2022-09-09T05:21:46;6.27;;;2.33;;
15155;SDS011;7678;50.058;8.306;2022-09-09T05:24:13;6.20;;;2.37;;
15155;SDS011;7678;50.058;8.306;2022-09-09T05:26:42;5.03;;;2.70;;
15155;SDS011;7678;50.058;8.306;2022-09-09T05:29:10;5.00;;;2.70;;
15155;SDS011;7678;50.058;8.306;2022-09-09T05:31:38;6.60;;;3.00;;
15155;SDS011;7678;50.058;8.306;2022-09-09T05:34:09;8.50;;;2.80;;
15155;SDS011;7678;50.058;8.306;2022-09-09T05:36:37;9.57;;;2.60;;
15155;SDS011;7678;50.058;8.306;2022-09-09T05:39:05;12.97;;;3.20;;
15155;SDS011;7678;50.058;8.306;2022-09-09T05:41:33;4.93;;;2.33;;
15155;SDS011;7678;50.058;8.306;2022-09-09T05:44:02;6.13;;;2.87;;
15155;SDS011;7678;50.058;8.306;2022-09-09T05:46:29;4.50;;;2.33;;
15155;SDS011;7678;50.058;8.306;2022-09-09T05:48:58;5.20;;;2.53;;
15155;SDS011;7678;50.058;8.306;2022-09-09T05:51:28;6.33;;;2.20;;
15155;SDS011;7678;50.058;8.306;2022-09-09T05:53:57;5.77;;;2.33;;
15155;SDS011;7678;50.058;8.306;2022-09-09T05:56:26;7.07;;;2.30;;
15155;SDS011;7678;50.058;8.306;2022-09-09T05:58:55;5.60;;;2.20;;
15155;SDS011;7678;50.058;8.306;2022-09-09T06:01:24;6.27;;;2.47;;
15155;SDS011;7678;50.058;8.306;2022-09-09T06:03:53;3.63;;;2.10;;
15155;SDS011;7678;50.058;8.306;2022-09-09T06:06:26;5.33;;;2.20;;
15155;SDS011;7678;50.058;8.306;2022-09-09T06:09:03;7.53;;;2.50;;
15155;SDS011;7678;50.058;8.306;2022-09-09T06:11:36;2.73;;;1.60;;
15155;SDS011;7678;50.058;8.306;2022-09-09T06:14:05;7.03;;;2.33;;
15155;SDS011;7678;50.058;8.306;2022-09-09T06:16:35;3.20;;;1.83;;
15155;SDS011;7678;50.058;8.306;2022-09-09T06:19:08;8.63;;;2.47;;
15155;SDS011;7678;50.058;8.306;2022-09-09T06:21:41;5.70;;;1.60;;
15155;SDS011;7678;50.058;8.306;2022-09-09T06:24:11;7.00;;;1.60;;
15155;SDS011;7678;50.058;8.306;2022-09-09T06:26:46;4.97;;;1.90;;
15155;SDS011;7678;50.058;8.306;2022-09-09T06:29:16;5.00;;;1.77;;
15155;SDS011;7678;50.058;8.306;2022-09-09T06:31:45;4.70;;;2.17;;
15155;SDS011;7678;50.058;8.306;2022-09-09T06:34:14;4.40;;;1.60;;
15155;SDS011;7678;50.058;8.306;2022-09-09T06:36:44;2.20;;;1.40;;
15155;SDS011;7678;50.058;8.306;2022-09-09T06:39:12;4.77;;;1.50;;
15155;SDS011;7678;50.058;8.306;2022-09-09T06:41:41;3.77;;;1.60;;
15155;SDS011;7678;50.058;8.306;2022-09-09T06:44:09;3.53;;;1.30;;
15155;SDS011;7678;50.058;8.306;2022-09-09T06:46:38;4.33;;;1.40;;
15155;SDS011;7678;50.058;8.306;2022-09-09T06:49:07;2.47;;;1.40;;
15155;SDS011;7678;50.058;8.306;2022-09-09T06:51:36;5.07;;;1.83;;
15155;SDS011;7678;50.058;8.306;2022-09-09T06:54:10;2.97;;;1.60;;
15155;SDS011;7678;50.058;8.306;2022-09-09T06:56:39;2.97;;;1.43;;
15155;SDS011;7678;50.058;8.306;2022-09-09T06:59:09;6.07;;;2.00;;
15155;SDS011;7678;50.058;8.306;2022-09-09T07:01:38;4.93;;;1.70;;
15155;SDS011;7678;50.058;8.306;2022-09-09T07:04:08;4.83;;;1.80;;
15155;SDS011;7678;50.058;8.306;2022-09-09T07:06:37;6.77;;;1.77;;
15155;SDS011;7678;50.058;8.306;2022-09-09T07:09:08;6.73;;;1.60;;
15155;SDS011;7678;50.058;8.306;2022-09-09T07:11:39;10.07;;;2.27;;
15155;SDS011;7678;50.058;8.306;2022-09-09T07:14:08;6.17;;;1.70;;
15155;SDS011;7678;50.058;8.306;2022-09-09T07:16:39;6.63;;;1.53;;
15155;SDS011;7678;50.058;8.306;2022-09-09T07:19:07;7.57;;;1.87;;
15155;SDS011;7678;50.058;8.306;2022-09-09T07:21:35;9.97;;;1.87;;
15155;SDS011;7678;50.058;8.306;2022-09-09T07:24:03;5.37;;;1.80;;
15155;SDS011;7678;50.058;8.306;2022-09-09T07:26:35;4.17;;;1.53;;
15155;SDS011;7678;50.058;8.306;2022-09-09T07:29:03;7.10;;;1.70;;
15155;SDS011;7678;50.058;8.306;2022-09-09T07:31:33;4.47;;;1.53;;
15155;SDS011;7678;50.058;8.306;2022-09-09T07:34:03;5.03;;;1.40;;
15155;SDS011;7678;50.058;8.306;2022-09-09T07:36:32;7.33;;;1.93;;
15155;SDS011;7678;50.058;8.306;2022-09-09T07:39:02;3.87;;;1.50;;
15155;SDS011;7678;50.058;8.306;2022-09-09T07:41:33;6.57;;;1.83;;
15155;SDS011;7678;50.058;8.306;2022-09-09T07:44:07;4.30;;;1.60;;
15155;SDS011;7678;50.058;8.306;2022-09-09T07:46:37;3.83;;;1.47;;
15155;SDS011;7678;50.058;8.306;2022-09-09T07:49:06;4.00;;;1.40;;
15155;SDS011;7678;50.058;8.306;2022-09-09T07:51:35;5.07;;;1.40;;
15155;SDS011;7678;50.058;8.306;2022-09-09T07:54:06;5.67;;;1.70;;
15155;SDS011;7678;50.058;8.306;2022-09-09T07:56:37;4.60;;;1.40;;
15155;SDS011;7678;50.058;8.306;2022-09-09T07:59:07;5.27;;;1.70;;
15155;SDS011;7678;50.058;8.306;2022-09-09T08:01:37;4.77;;;1.73;;
15155;SDS011;7678;50.058;8.306;2022-09-09T08:04:09;5.00;;;2.00;;
15155;SDS011;7678;50.058;8.306;2022-09-09T08:06:45;6.10;;;2.07;;
15155;SDS011;7678;50.058;8.306;2022-09-09T08:09:14;5.30;;;1.90;;
15155;SDS011;7678;50.058;8.306;2022-09-09T08:11:45;3.67;;;1.80;;
15155;SDS011;7678;50.058;8.306;2022-09-09T08:14:13;6.27;;;2.20;;
15155;SDS011;7678;50.058;8.306;2022-09-09T08:16:43;7.53;;;2.10;;
15155;SDS011;7678;50.058;8.306;2022-09-09T08:19:13;6.37;;;2.37;;
15155;SDS011;7678;50.058;8.306;2022-09-09T08:21:42;6.37;;;1.97;;
15155;SDS011;7678;50.058;8.306;2022-09-09T08:24:11;5.57;;;1.90;;
15155;SDS011;7678;50.058;8.306;2022-09-09T08:26:41;8.10;;;1.90;;
15155;SDS011;7678;50.058;8.306;2022-09-09T08:29:13;9.67;;;2.10;;
15155;SDS011;7678;50.058;8.306;2022-09-09T08:31:43;6.00;;;2.50;;
15155;SDS011;7678;50.058;8.306;2022-09-09T08:34:13;6.73;;;2.50;;
15155;SDS011;7678;50.058;8.306;2022-09-09T08:36:43;8.70;;;2.40;;
15155;SDS011;7678;50.058;8.306;2022-09-09T08:39:13;6.13;;;2.03;;
15155;SDS011;7678;50.058;8.306;2022-09-09T08:41:46;5.67;;;2.20;;
15155;SDS011;7678;50.058;8.306;2022-09-09T08:44:31;7.30;;;2.30;;
15155;SDS011;7678;50.058;8.306;2022-09-09T08:47:17;4.27;;;2.07;;
15155;SDS011;7678;50.058;8.306;2022-09-09T08:50:01;5.40;;;1.93;;
15155;SDS011;7678;50.058;8.306;2022-09-09T08:52:37;4.90;;;1.80;;
15155;SDS011;7678;50.058;8.306;2022-09-09T08:55:21;4.53;;;1.60;;
15155;SDS011;7678;50.058;8.306;2022-09-09T08:57:57;4.03;;;1.87;;
15155;SDS011;7678;50.058;8.306;2022-09-09T09:00:31;4.60;;;2.00;;
15155;SDS011;7678;50.058;8.306;2022-09-09T09:03:11;7.80;;;2.30;;
15155;SDS011;7678;50.058;8.306;2022-09-09T09:05:56;5.33;;;2.30;;
15155;SDS011;7678;50.058;8.306;2022-09-09T09:08:33;7.23;;;2.60;;
15155;SDS011;7678;50.058;8.306;2022-09-09T09:11:07;7.63;;;2.57;;
15155;SDS011;7678;50.058;8.306;2022-09-09T09:13:37;10.63;;;2.80;;
15155;SDS011;7678;50.058;8.306;2022-09-09T09:16:15;6.43;;;2.50;;
15155;SDS011;7678;50.058;8.306;2022-09-09T09:18:51;6.47;;;2.30;;
15155;SDS011;7678;50.058;8.306;2022-09-09T09:21:21;8.30;;;2.50;;
15155;SDS011;7678;50.058;8.306;2022-09-09T09:23:57;7.93;;;1.80;;
15155;SDS011;7678;50.058;8.306;2022-09-09T09:26:29;9.07;;;2.33;;
15155;SDS011;7678;50.058;8.306;2022-09-09T09:28:59;4.90;;;1.50;;
15155;SDS011;7678;50.058;8.306;2022-09-09T09:31:37;7.03;;;1.73;;
15155;SDS011;7678;50.058;8.306;2022-09-09T09:34:04;6.23;;;2.00;;
15155;SDS011;7678;50.058;8.306;2022-09-09T09:36:39;2.27;;;1.30;;
15155;SDS011;7678;50.058;8.306;2022-09-09T09:39:10;7.97;;;2.20;;
15155;SDS011;7678;50.058;8.306;2022-09-09T09:42:09;5.87;;;1.33;;
15155;SDS011;7678;50.058;8.306;2022-09-09T09:44:40;3.50;;;1.40;;
15155;SDS011;7678;50.058;8.306;2022-09-09T09:47:11;7.50;;;2.00;;
15155;SDS011;7678;50.058;8.306;2022-09-09T09:49:50;5.63;;;1.60;;
15155;SDS011;7678;50.058;8.306;2022-09-09T09:52:20;3.33;;;1.23;;
15155;SDS011;7678;50.058;8.306;2022-09-09T09:54:50;9.60;;;1.97;;
15155;SDS011;7678;50.058;8.306;2022-09-09T09:57:22;6.80;;;1.87;;
15155;SDS011;7678;50.058;8.306;2022-09-09T10:00:03;11.33;;;2.10;;
15155;SDS011;7678;50.058;8.306;2022-09-09T10:02:41;6.17;;;2.17;;
15155;SDS011;7678;50.058;8.306;2022-09-09T10:05:13;4.13;;;1.60;;
15155;SDS011;7678;50.058;8.306;2022-09-09T10:07:43;6.73;;;2.37;;
15155;SDS011;7678;50.058;8.306;2022-09-09T10:10:13;5.80;;;1.50;;
15155;SDS011;7678;50.058;8.306;2022-09-09T10:12:51;9.70;;;2.13;;
15155;SDS011;7678;50.058;8.306;2022-09-09T10:15:30;4.37;;;1.50;;
15155;SDS011;7678;50.058;8.306;2022-09-09T10:18:12;5.47;;;2.03;;
15155;SDS011;7678;50.058;8.306;2022-09-09T10:21:04;7.23;;;1.50;;
15155;SDS011;7678;50.058;8.306;2022-09-09T10:23:45;3.53;;;1.27;;
15155;SDS011;7678;50.058;8.306;2022-09-09T10:26:37;5.30;;;1.37;;
15155;SDS011;7678;50.058;8.306;2022-09-09T10:29:14;3.33;;;1.60;;
15155;SDS011;7678;50.058;8.306;2022-09-09T10:32:07;4.23;;;1.53;;
15155;SDS011;7678;50.058;8.306;2022-09-09T10:34:57;6.67;;;1.60;;
15155;SDS011;7678;50.058;8.306;2022-09-09T10:37:35;6.30;;;1.33;;
15155;SDS011;7678;50.058;8.306;2022-09-09T10:40:23;3.50;;;1.20;;
15155;SDS011;7678;50.058;8.306;2022-09-09T10:43:01;6.00;;;1.67;;
15155;SDS011;7678;50.058;8.306;2022-09-09T10:45:39;5.37;;;1.73;;
15155;SDS011;7678;50.058;8.306;2022-09-09T10:48:20;5.50;;;1.87;;
15155;SDS011;7678;50.058;8.306;2022-09-09T10:51:05;3.13;;;1.10;;
15155;SDS011;7678;50.058;8.306;2022-09-09T10:53:47;3.37;;;1.40;;
15155;SDS011;7678;50.058;8.306;2022-09-09T10:56:21;6.90;;;1.53;;
15155;SDS011;7678;50.058;8.306;2022-09-09T10:58:52;4.77;;;1.40;;
15155;SDS011;7678;50.058;8.306;2022-09-09T11:01:24;3.37;;;1.03;;
15155;SDS011;7678;50.058;8.306;2022-09-09T11:03:57;4.97;;;1.30;;
15155;SDS011;7678;50.058;8.306;2022-09-09T11:06:30;3.70;;;1.40;;
15155;SDS011;7678;50.058;8.306;2022-09-09T11:09:03;6.57;;;1.27;;
15155;SDS011;7678;50.058;8.306;2022-09-09T11:11:34;5.40;;;1.33;;
15155;SDS011;7678;50.058;8.306;2022-09-09T11:14:09;9.87;;;1.30;;
15155;SDS011;7678;50.058;8.306;2022-09-09T11:16:40;3.90;;;0.93;;
15155;SDS011;7678;50.058;8.306;2022-09-09T11:19:15;6.37;;;1.40;;
15155;SDS011;7678;50.058;8.306;2022-09-09T11:21:51;4.33;;;1.63;;
15155;SDS011;7678;50.058;8.306;2022-09-09T11:24:21;6.27;;;1.53;;
15155;SDS011;7678;50.058;8.306;2022-09-09T11:26:55;3.37;;;0.83;;
15155;SDS011;7678;50.058;8.306;2022-09-09T11:29:33;3.17;;;1.23;;
15155;SDS011;7678;50.058;8.306;2022-09-09T11:35:21;6.60;;;1.47;;
15155;SDS011;7678;50.058;8.306;2022-09-09T11:38:14;3.97;;;1.00;;
15155;SDS011;7678;50.058;8.306;2022-09-09T11:40:46;4.73;;;1.20;;
15155;SDS011;7678;50.058;8.306;2022-09-09T11:43:23;5.63;;;1.00;;
15155;SDS011;7678;50.058;8.306;2022-09-09T11:45:54;3.10;;;1.10;;
15155;SDS011;7678;50.058;8.306;2022-09-09T11:48:28;5.10;;;1.63;;
15155;SDS011;7678;50.058;8.306;2022-09-09T11:51:02;7.40;;;1.50;;
15155;SDS011;7678;50.058;8.306;2022-09-09T11:53:48;5.97;;;1.57;;
15155;SDS011;7678;50.058;8.306;2022-09-09T11:56:24;4.00;;;1.20;;
15155;SDS011;7678;50.058;8.306;2022-09-09T11:58:57;5.03;;;1.10;;
15155;SDS011;7678;50.058;8.306;2022-09-09T12:01:34;5.57;;;1.10;;
15155;SDS011;7678;50.058;8.306;2022-09-09T12:07:04;5.67;;;1.70;;
15155;SDS011;7678;50.058;8.306;2022-09-09T12:09:54;5.33;;;1.50;;
15155;SDS011;7678;50.058;8.306;2022-09-09T12:12:25;3.77;;;1.13;;
15155;SDS011;7678;50.058;8.306;2022-09-09T12:14:56;2.77;;;1.17;;
15155;SDS011;7678;50.058;8.306;2022-09-09T12:17:27;5.67;;;1.33;;
15155;SDS011;7678;50.058;8.306;2022-09-09T12:20:01;4.90;;;1.37;;
15155;SDS011;7678;50.058;8.306;2022-09-09T12:22:55;6.13;;;1.20;;
15155;SDS011;7678;50.058;8.306;2022-09-09T12:25:46;4.67;;;1.40;;
15155;SDS011;7678;50.058;8.306;2022-09-09T12:28:21;6.33;;;1.27;;
15155;SDS011;7678;50.058;8.306;2022-09-09T12:30:55;5.60;;;1.40;;
15155;SDS011;7678;50.058;8.306;2022-09-09T12:33:33;5.90;;;1.60;;
15155;SDS011;7678;50.058;8.306;2022-09-09T12:36:03;4.93;;;1.00;;
15155;SDS011;7678;50.058;8.306;2022-09-09T12:38:35;4.27;;;1.47;;
15155;SDS011;7678;50.058;8.306;2022-09-09T12:41:15;5.03;;;1.07;;
15155;SDS011;7678;50.058;8.306;2022-09-09T12:43:47;3.00;;;0.93;;
15155;SDS011;7678;50.058;8.306;2022-09-09T12:46:21;5.77;;;1.20;;
15155;SDS011;7678;50.058;8.306;2022-09-09T12:48:58;4.03;;;1.33;;
15155;SDS011;7678;50.058;8.306;2022-09-09T12:51:28;2.33;;;0.67;;
15155;SDS011;7678;50.058;8.306;2022-09-09T12:53:58;3.90;;;0.83;;
15155;SDS011;7678;50.058;8.306;2022-09-09T12:56:28;2.37;;;1.10;;
15155;SDS011;7678;50.058;8.306;2022-09-09T12:58:59;4.57;;;1.20;;
15155;SDS011;7678;50.058;8.306;2022-09-09T13:01:28;1.37;;;0.60;;
15155;SDS011;7678;50.058;8.306;2022-09-09T13:03:58;4.03;;;1.20;;
15155;SDS011;7678;50.058;8.306;2022-09-09T13:06:28;8.10;;;1.30;;
15155;SDS011;7678;50.058;8.306;2022-09-09T13:08:58;3.90;;;1.20;;
15155;SDS011;7678;50.058;8.306;2022-09-09T13:11:30;6.53;;;1.10;;
15155;SDS011;7678;50.058;8.306;2022-09-09T13:14:02;3.03;;;1.10;;
15155;SDS011;7678;50.058;8.306;2022-09-09T13:16:31;2.40;;;0.97;;
15155;SDS011;7678;50.058;8.306;2022-09-09T13:19:08;4.60;;;1.40;;
15155;SDS011;7678;50.058;8.306;2022-09-09T13:21:38;3.23;;;1.03;;
15155;SDS011;7678;50.058;8.306;2022-09-09T13:24:21;6.67;;;1.20;;
15155;SDS011;7678;50.058;8.306;2022-09-09T13:26:57;2.60;;;1.10;;
15155;SDS011;7678;50.058;8.306;2022-09-09T13:29:28;6.93;;;1.10;;
15155;SDS011;7678;50.058;8.306;2022-09-09T13:32:03;4.77;;;1.30;;
15155;SDS011;7678;50.058;8.306;2022-09-09T13:34:33;2.63;;;1.00;;
15155;SDS011;7678;50.058;8.306;2022-09-09T13:37:03;4.40;;;1.00;;
15155;SDS011;7678;50.058;8.306;2022-09-09T13:39:33;4.00;;;0.90;;
15155;SDS011;7678;50.058;8.306;2022-09-09T13:42:05;4.37;;;1.13;;
15155;SDS011;7678;50.058;8.306;2022-09-09T13:44:49;4.33;;;1.30;;
15155;SDS011;7678;50.058;8.306;2022-09-09T13:47:17;6.10;;;1.00;;
15155;SDS011;7678;50.058;8.306;2022-09-09T13:49:47;3.83;;;0.90;;
15155;SDS011;7678;50.058;8.306;2022-09-09T13:52:16;5.07;;;1.20;;
15155;SDS011;7678;50.058;8.306;2022-09-09T13:54:46;2.90;;;1.03;;
15155;SDS011;7678;50.058;8.306;2022-09-09T13:57:18;2.53;;;1.00;;
15155;SDS011;7678;50.058;8.306;2022-09-09T13:59:47;7.60;;;0.90;;
15155;SDS011;7678;50.058;8.306;2022-09-09T14:02:32;8.17;;;0.93;;
15155;SDS011;7678;50.058;8.306;2022-09-09T14:05:00;2.90;;;0.77;;
15155;SDS011;7678;50.058;8.306;2022-09-09T14:07:28;4.87;;;0.83;;
15155;SDS011;7678;50.058;8.306;2022-09-09T14:09:56;3.60;;;1.13;;
15155;SDS011;7678;50.058;8.306;2022-09-09T14:12:25;3.87;;;1.20;;
15155;SDS011;7678;50.058;8.306;2022-09-09T14:14:53;5.90;;;1.10;;
15155;SDS011;7678;50.058;8.306;2022-09-09T14:17:21;4.10;;;0.90;;
15155;SDS011;7678;50.058;8.306;2022-09-09T14:19:51;2.50;;;0.90;;
15155;SDS011;7678;50.058;8.306;2022-09-09T14:22:19;6.13;;;1.30;;
15155;SDS011;7678;50.058;8.306;2022-09-09T14:24:47;4.53;;;1.30;;
15155;SDS011;7678;50.058;8.306;2022-09-09T14:27:16;4.27;;;1.40;;
15155;SDS011;7678;50.058;8.306;2022-09-09T14:29:46;3.87;;;1.20;;
15155;SDS011;7678;50.058;8.306;2022-09-09T14:32:14;3.70;;;1.20;;
15155;SDS011;7678;50.058;8.306;2022-09-09T14:34:41;7.27;;;2.03;;
15155;SDS011;7678;50.058;8.306;2022-09-09T14:37:10;5.00;;;1.30;;
15155;SDS011;7678;50.058;8.306;2022-09-09T14:39:38;5.10;;;1.47;;
15155;SDS011;7678;50.058;8.306;2022-09-09T14:42:06;3.43;;;1.20;;
15155;SDS011;7678;50.058;8.306;2022-09-09T14:44:37;3.17;;;1.10;;
15155;SDS011;7678;50.058;8.306;2022-09-09T14:47:06;1.90;;;1.00;;
15155;SDS011;7678;50.058;8.306;2022-09-09T14:49:35;2.77;;;0.90;;
15155;SDS011;7678;50.058;8.306;2022-09-09T14:52:06;5.27;;;1.10;;
15155;SDS011;7678;50.058;8.306;2022-09-09T14:54:35;4.90;;;1.87;;
15155;SDS011;7678;50.058;8.306;2022-09-09T14:57:03;3.03;;;1.30;;
15155;SDS011;7678;50.058;8.306;2022-09-09T14:59:31;4.63;;;1.00;;
15155;SDS011;7678;50.058;8.306;2022-09-09T15:02:00;2.40;;;1.10;;
15155;SDS011;7678;50.058;8.306;2022-09-09T15:04:32;4.13;;;1.40;;
15155;SDS011;7678;50.058;8.306;2022-09-09T15:06:59;4.33;;;1.00;;
15155;SDS011;7678;50.058;8.306;2022-09-09T15:09:27;3.10;;;1.27;;
15155;SDS011;7678;50.058;8.306;2022-09-09T15:11:55;3.30;;;1.30;;
15155;SDS011;7678;50.058;8.306;2022-09-09T15:14:23;2.63;;;1.10;;
15155;SDS011;7678;50.058;8.306;2022-09-09T15:16:52;3.13;;;1.10;;
15155;SDS011;7678;50.058;8.306;2022-09-09T15:19:21;2.93;;;1.10;;
15155;SDS011;7678;50.058;8.306;2022-09-09T15:21:50;2.00;;;0.90;;
15155;SDS011;7678;50.058;8.306;2022-09-09T15:24:18;5.30;;;1.20;;
15155;SDS011;7678;50.058;8.306;2022-09-09T15:26:46;3.00;;;0.87;;
15155;SDS011;7678;50.058;8.306;2022-09-09T15:29:14;4.27;;;1.13;;
15155;SDS011;7678;50.058;8.306;2022-09-09T15:31:42;5.97;;;1.20;;
15155;SDS011;7678;50.058;8.306;2022-09-09T15:34:10;3.87;;;1.03;;
15155;SDS011;7678;50.058;8.306;2022-09-09T15:36:40;3.30;;;0.90;;